createdAt,value
2023-02-08T13:16:58.313Z,29.90
2023-02-08T13:19:27.719Z,29.90
2023-02-08T13:21:57.208Z,30.00
2023-02-08T13:24:26.730Z,30.10
2023-02-08T13:26:56.017Z,30.30
2023-02-08T13:29:28.154Z,30.40
2023-02-08T13:31:56.690Z,30.60
2023-02-08T13:34:26.387Z,30.70
2023-02-08T13:36:55.711Z,30.80
2023-02-08T13:39:24.997Z,30.90
2023-02-08T13:41:54.301Z,31.00
2023-02-08T13:44:23.210Z,31.10
2023-02-08T13:46:52.801Z,31.20
2023-02-08T13:49:22.200Z,31.20
2023-02-08T13:51:51.717Z,31.20
2023-02-08T13:54:21.091Z,31.30
2023-02-08T13:56:50.515Z,31.30
2023-02-08T14:02:12.186Z,31.40
2023-02-08T14:15:39.123Z,31.50
2023-02-08T14:21:12.902Z,31.50
2023-02-08T14:23:44.940Z,31.50
2023-02-08T14:26:12.945Z,31.50
2023-02-08T14:34:49.148Z,31.50
2023-02-08T14:40:11.397Z,31.50
2023-02-08T14:42:41.005Z,31.50
2023-02-08T14:45:10.110Z,31.50
2023-02-08T14:47:39.301Z,31.50
2023-02-08T14:50:11.135Z,31.50
2023-02-08T14:52:42.450Z,31.50
2023-02-08T14:55:12.199Z,31.50
2023-02-08T14:57:41.822Z,31.50
2023-02-08T15:00:11.005Z,31.50
2023-02-08T15:02:40.130Z,31.50
2023-02-08T15:05:10.441Z,31.50
2023-02-08T15:07:39.736Z,31.50
2023-02-08T15:10:09.043Z,31.40
2023-02-08T15:12:42.981Z,31.20
2023-02-08T15:15:22.163Z,31.10
2023-02-08T15:18:09.551Z,31.10
2023-02-08T15:20:30.446Z,31.00
2023-02-08T15:23:02.785Z,31.00
2023-02-08T15:25:32.189Z,30.90
2023-02-08T15:28:01.373Z,30.90
2023-02-08T15:30:33.565Z,30.90
2023-02-08T15:33:02.889Z,30.90
2023-02-08T15:35:32.225Z,30.90
2023-02-08T15:43:38.456Z,30.90
